Flight Track Log - Related Links

Times and Time Zones

All times are in EDT time to prevent confusion due to time zone crossing. See the BER8750 flight status page for this flight to view local times or setup timezone preferences in your user account.

Time Position Orientation Groundspeed Altitude Reporting Facility
EDT Latitude Longitude Course Direction KTS MPH feet Rate Location/Type
Sun 08:21:01 AM 51.2950 6.7850 53° Northeast 162 186 500  Level FlightAware ADS-B
Sun 08:21:27 AM 51.3080 6.8100 50° Northeast 167 192 1,500 2,553 Climbing FlightAware ADS-B
Sun 08:21:48 AM 51.3180 6.8320 54° Northeast 167 192 2,500 2,800 Climbing FlightAware ADS-B
Sun 08:21:57 AM 51.3220 6.8420 57° Northeast 165 190 2,900 2,000 Climbing FlightAware ADS-B
Sun 08:22:30 AM 51.3380 6.8760 53° Northeast 186 214 3,900 1,674 Climbing FlightAware ADS-B
Sun 08:22:40 AM 51.3440 6.8880 51° Northeast 203 234 4,100 1,091 Climbing FlightAware ADS-B
Sun 08:22:52 AM 51.3530 6.9000 40° Northeast 222 255 4,300 947 Climbing FlightAware ADS-B
Sun 08:22:59 AM 51.3590 6.9060 32° Northeast 236 272 4,400 1,200 Climbing FlightAware ADS-B
Sun 08:23:12 AM 51.3740 6.9110 12° North 257 296 4,700 1,680 Climbing FlightAware ADS-B
Sun 08:23:24 AM 51.3890 6.9150 North 266 306 5,100 2,250 Climbing FlightAware ADS-B
Sun 08:23:44 AM 51.4140 6.9210 North 276 318 5,900 2,667 Climbing FlightAware ADS-B
Sun 08:24:00 AM 51.4340 6.9270 11° North 278 320 6,700 3,130 Climbing FlightAware ADS-B
Sun 08:24:07 AM 51.4440 6.9280 North 282 325 7,100 3,243 Climbing FlightAware ADS-B
Sun 08:24:37 AM 51.4770 6.9020 334° Northwest 291 335 8,700 3,257 Climbing FlightAware ADS-B
Sun 08:24:42 AM 51.4820 6.8920 309° West 293 337 9,000 3,000 Climbing FlightAware ADS-B
Sun 08:24:47 AM 51.4830 6.8880 292° West 294 338 9,200 2,800 Climbing FlightAware ADS-B
Sun 08:24:57 AM 51.4880 6.8630 288° West 296 341 9,700 1,920 Climbing FlightAware ADS-B
Sun 08:25:37 AM 51.4980 6.7690 280° West 339 390 10,800 1,840 Climbing FlightAware ADS-B
Sun 08:26:12 AM 51.5070 6.6790 279° West 360 414 12,000 2,400 Climbing FlightAware ADS-B
Sun 08:26:47 AM 51.5170 6.5850 280° West 374 430 13,600 2,800 Climbing FlightAware ADS-B
Sun 08:27:12 AM 51.5090 6.5220 258° West 375 432 14,800 3,176 Climbing FlightAware ADS-B
Sun 08:27:21 AM 51.4970 6.4980 231° Southwest 374 430 15,400 3,000 Climbing FlightAware ADS-B
Sun 08:27:32 AM 51.4830 6.4810 217° Southwest 369 425 15,800 2,640 Climbing FlightAware ADS-B
Sun 08:28:11 AM 51.4210 6.4360 204° Southwest 381 438 17,600 2,676 Climbing FlightAware ADS-B
Sun 08:28:46 AM 51.3650 6.3880 208° Southwest 385 443 19,100 2,677 Climbing FlightAware ADS-B
Sun 08:29:16 AM 51.3170 6.3450 209° Southwest 390 449 20,500 2,704 Climbing FlightAware ADS-B
Sun 08:29:57 AM 51.2520 6.2890 208° Southwest 402 463 22,300 2,480 Climbing FlightAware ADS-B
Sun 08:30:31 AM 51.1950 6.2410 208° Southwest 401 461 23,600 2,229 Climbing FlightAware ADS-B
Sun 08:31:07 AM 51.1360 6.1910 208° Southwest 416 479 24,900 2,229 Climbing FlightAware ADS-B
Sun 08:31:41 AM 51.0750 6.1390 208° Southwest 417 480 26,200 2,057 Climbing FlightAware ADS-B
Sun 08:32:17 AM 51.0140 6.0870 208° Southwest 424 488 27,300 1,846 Climbing FlightAware ADS-B
Sun 08:32:46 AM 50.9630 6.0360 212° Southwest 438 504 28,200 1,800 Climbing FlightAware ADS-B
Sun 08:33:17 AM 50.9100 5.9880 210° Southwest 441 507 29,100 1,714 Climbing FlightAware ADS-B
Sun 08:33:56 AM 50.8400 5.9300 208° Southwest 439 505 30,200 1,680 Climbing FlightAware ADS-B
Sun 08:34:32 AM 50.7710 5.8790 205° Southwest 432 497 31,200 1,964 Climbing FlightAware ADS-B
Sun 08:34:51 AM 50.7320 5.8780 181° South 418 481 32,000 2,200 Climbing FlightAware ADS-B
Sun 08:35:32 AM 50.6630 5.9090 164° South 408 470 33,400 2,132 Climbing FlightAware ADS-B
Sun 08:36:07 AM 50.5920 5.9450 162° South 403 464 34,700 1,739 Climbing FlightAware ADS-B
Sun 08:36:41 AM 50.5310 5.9750 163° South 406 467 35,400 857 Climbing FlightAware ADS-B
Sun 08:37:17 AM 50.4670 6.0070 162° South 421 484 35,700 514 Climbing FlightAware ADS-B
Sun 08:37:51 AM 50.4010 6.0390 163° South 442 509 36,000 600 Climbing FlightAware ADS-B
Sun 08:38:27 AM 50.3350 6.0720 162° South 438 504 36,400 857 Climbing FlightAware ADS-B
Sun 08:39:01 AM 50.2600 6.1080 163° South 435 501 37,000 943 Climbing FlightAware ADS-B
Sun 08:39:37 AM 50.1990 6.1380 163° South 437 503 37,500 943 Climbing FlightAware ADS-B
Sun 08:40:11 AM 50.1250 6.1750 162° South 439 505 38,100 1,043 Climbing FlightAware ADS-B
Sun 08:40:46 AM 50.0590 6.2060 163° South 437 503 38,700 818 Climbing FlightAware ADS-B
Sun 08:41:17 AM 49.9940 6.2370 163° South 436 502 39,000 250 Climbing FlightAware ADS-B
Sun 08:41:58 AM 49.9180 6.2740 163° South 436 502 39,000  Level FlightAware ADS-B
Sun 08:42:32 AM 49.8480 6.3080 163° South 443 510 39,000  Level FlightAware ADS-B
Sun 08:43:07 AM 49.7810 6.3400 163° South 443 510 39,000  Level FlightAware ADS-B
Sun 08:43:40 AM 49.7130 6.3730 163° South 442 509 39,000  Level FlightAware ADS-B
Sun 08:44:17 AM 49.6410 6.4080 163° South 444 511 39,000  Level FlightAware ADS-B
Sun 08:44:51 AM 49.5720 6.4410 163° South 444 511 39,000  Level FlightAware ADS-B
Sun 08:45:31 AM 49.4970 6.4760 163° South 445 512 39,000  Level FlightAware ADS-B
Sun 08:46:12 AM 49.4150 6.5150 163° South 446 513 39,000  Level FlightAware ADS-B
Sun 08:46:48 AM 49.3420 6.5500 163° South 447 514 39,000  Level FlightAware ADS-B
Sun 08:47:20 AM 49.2790 6.5780 164° South 448 516 39,000  Level FlightAware ADS-B
Sun 08:47:56 AM 49.2090 6.6120 162° South 448 516 39,000  Level FlightAware ADS-B
Sun 08:48:28 AM 49.1460 6.6420 163° South 449 517 39,000  Level FlightAware ADS-B
Sun 08:49:04 AM 49.0740 6.6750 163° South 448 516 39,000  Level FlightAware ADS-B
Sun 08:49:37 AM 49.0110 6.7020 164° South 449 517 39,000  Level FlightAware ADS-B
Sun 08:50:12 AM 48.9400 6.7140 174° South 449 517 39,000  Level FlightAware ADS-B
Sun 08:50:47 AM 48.8640 6.7120 181° South 449 517 39,000  Level FlightAware ADS-B
Sun 08:51:27 AM 48.7820 6.7080 182° South 449 517 39,000  Level FlightAware ADS-B
Sun 08:52:02 AM 48.7140 6.7050 182° South 448 516 39,000  Level FlightAware ADS-B
Sun 08:52:32 AM 48.6470 6.7030 181° South 448 516 39,000  Level FlightAware ADS-B
Sun 08:53:07 AM 48.5770 6.7000 182° South 449 517 39,000  Level FlightAware ADS-B
Sun 08:53:47 AM 48.4920 6.6970 181° South 449 517 39,000  Level FlightAware ADS-B
Sun 08:54:17 AM 48.4280 6.6940 182° South 448 516 39,000  Level FlightAware ADS-B
Sun 08:54:58 AM 48.3440 6.6910 181° South 448 516 39,000  Level FlightAware ADS-B
Sun 08:55:28 AM 48.2810 6.6890 181° South 447 514 39,000  Level FlightAware ADS-B
Sun 08:56:03 AM 48.2130 6.6860 182° South 447 514 39,000  Level FlightAware ADS-B
Sun 08:56:38 AM 48.1390 6.6830 182° South 438 504 39,000  Level FlightAware ADS-B
Sun 08:57:13 AM 48.0650 6.6810 181° South 438 504 39,000  Level FlightAware ADS-B
Sun 08:57:48 AM 47.9960 6.6780 182° South 437 503 39,000  Level FlightAware ADS-B
Sun 08:58:13 AM 47.9430 6.6760 181° South 437 503 39,000  Level FlightAware ADS-B
Sun 08:58:53 AM 47.8590 6.6730 181° South 438 504 39,000  Level FlightAware ADS-B
Sun 08:59:28 AM 47.7870 6.6700 182° South 447 514 39,000  Level FlightAware ADS-B
Sun 09:00:03 AM 47.7140 6.6680 181° South 449 517 39,000  Level FlightAware ADS-B
Sun 09:00:43 AM 47.6300 6.6640 182° South 451 519 39,000  Level FlightAware ADS-B
Sun 09:01:23 AM 47.5550 6.6690 177° South 452 520 39,000  Level FlightAware ADS-B
Sun 09:02:10 AM 47.4470 6.6830 175° South 455 524 39,000  Level FlightAware ADS-B
Sun 09:02:46 AM 47.3720 6.6920 175° South 456 525 39,000  Level FlightAware ADS-B
Sun 09:03:21 AM 47.2970 6.7010 175° South 456 525 39,000  Level FlightAware ADS-B
Sun 09:03:54 AM 47.2290 6.7090 175° South 456 525 39,000  Level FlightAware ADS-B
Sun 09:04:30 AM 47.1590 6.7180 175° South 455 524 39,000  Level FlightAware ADS-B
Sun 09:05:05 AM 47.0820 6.7270 175° South 454 522 39,000  Level FlightAware ADS-B
Sun 09:05:42 AM 47.0040 6.7360 176° South 453 521 39,000  Level FlightAware ADS-B
Sun 09:06:14 AM 46.9340 6.7450 175° South 451 519 39,000  Level FlightAware ADS-B
Sun 09:06:43 AM 46.8790 6.7520 175° South 451 519 39,000  Level FlightAware ADS-B
Sun 09:07:22 AM 46.7950 6.7620 175° South 450 518 39,000  Level FlightAware ADS-B
Sun 09:07:55 AM 46.7280 6.7700 175° South 450 518 39,000  Level FlightAware ADS-B
Sun 09:08:33 AM 46.6460 6.7800 175° South 450 518 39,000  Level FlightAware ADS-B
Sun 09:09:09 AM 46.5740 6.7880 176° South 449 517 39,000  Level FlightAware ADS-B
Sun 09:09:45 AM 46.4980 6.7970 175° South 449 517 39,000  Level FlightAware ADS-B
Sun 09:10:17 AM 46.4330 6.8050 175° South 448 516 39,000  Level FlightAware ADS-B
Sun 09:10:53 AM 46.3590 6.8130 176° South 447 514 39,000  Level FlightAware ADS-B
Sun 09:11:31 AM 46.2830 6.8220 175° South 447 514 39,000  Level FlightAware ADS-B
Sun 09:12:03 AM 46.2140 6.8300 175° South 447 514 39,000  Level FlightAware ADS-B
Sun 09:12:35 AM 46.1480 6.8380 175° South 449 517 39,000  Level FlightAware ADS-B
Sun 09:13:15 AM 46.0660 6.8480 175° South 449 517 39,000  Level FlightAware ADS-B
Sun 09:13:49 AM 45.9950 6.8560 176° South 449 517 39,000  Level FlightAware ADS-B
Sun 09:14:25 AM 45.9210 6.8650 175° South 450 518 39,000  Level FlightAware ADS-B
Sun 09:14:55 AM 45.8570 6.8720 176° South 451 519 39,000  Level FlightAware ADS-B
Sun 09:15:33 AM 45.7800 6.8810 175° South 452 520 39,000  Level FlightAware ADS-B
Sun 09:16:11 AM 45.7010 6.8900 175° South 453 521 39,000 -568 Level FlightAware ADS-B
Sun 09:16:47 AM 45.6240 6.8990 175° South 454 522 38,300 -1,059 Descending FlightAware ADS-B
Sun 09:17:19 AM 45.5560 6.9070 175° South 454 522 37,800 -882 Descending FlightAware ADS-B
Sun 09:17:55 AM 45.4820 6.9150 176° South 459 528 37,300 -917 Descending FlightAware ADS-B
Sun 09:18:31 AM 45.4030 6.9240 175° South 464 534 36,700 -917 Descending FlightAware ADS-B
Sun 09:19:07 AM 45.3290 6.9330 175° South 453 521 36,200 -971 Descending FlightAware ADS-B
Sun 09:19:39 AM 45.2600 6.9410 175° South 440 506 35,600 -1,500 Descending FlightAware ADS-B
Sun 09:20:15 AM 45.1890 6.9510 174° South 436 502 34,500 -2,167 Descending FlightAware ADS-B
Sun 09:20:51 AM 45.1150 6.9630 173° South 436 502 33,000 -2,333 Descending FlightAware ADS-B
Sun 09:21:27 AM 45.0440 6.9740 174° South 432 497 31,700 -2,206 Descending FlightAware ADS-B
Sun 09:21:59 AM 44.9810 6.9840 174° South 427 491 30,500 -2,206 Descending FlightAware ADS-B
Sun 09:22:35 AM 44.9100 6.9960 173° South 418 481 29,200 -1,324 Descending FlightAware ADS-B
Sun 09:23:07 AM 44.8490 7.0050 174° South 399 459 29,000 -176 Descending FlightAware ADS-B
Sun 09:23:43 AM 44.7850 7.0160 173° South 397 457 29,000 -833 Level FlightAware ADS-B
Sun 09:24:19 AM 44.7190 7.0320 170° South 396 456 28,000 -1,833 Descending FlightAware ADS-B
Sun 09:24:55 AM 44.6550 7.0470 171° South 391 450 26,800 -2,029 Descending FlightAware ADS-B
Sun 09:25:27 AM 44.6000 7.0600 170° South 387 445 25,700 -1,941 Descending FlightAware ADS-B
Sun 09:26:03 AM 44.5360 7.0750 171° South 382 440 24,600 -1,944 Descending FlightAware ADS-B
Sun 09:26:38 AM 44.4740 7.0900 170° South 376 433 23,400 -1,917 Descending FlightAware ADS-B
Sun 09:27:15 AM 44.4130 7.1040 171° South 370 426 22,300 -1,726 Descending FlightAware ADS-B
Sun 09:27:51 AM 44.3510 7.1190 170° South 363 418 21,300 -1,701 Descending FlightAware ADS-B
Sun 09:28:22 AM 44.3010 7.1310 170° South 356 410 20,400 -1,612 Descending FlightAware ADS-B
Sun 09:28:58 AM 44.2440 7.1440 171° South 349 402 19,500 -1,622 Descending FlightAware ADS-B
Sun 09:29:36 AM 44.1820 7.1580 171° South 342 394 18,400 -1,775 Descending FlightAware ADS-B
Sun 09:30:09 AM 44.1340 7.1850 158° South 347 399 17,400 -1,826 Descending FlightAware ADS-B
Sun 09:30:45 AM 44.0800 7.2190 156° South 344 396 16,300 -1,644 Descending FlightAware ADS-B
Sun 09:31:22 AM 44.0270 7.2500 157° South 338 389 15,400 -1,478 Descending FlightAware ADS-B
Sun 09:31:54 AM 43.9810 7.2780 156° South 329 379 14,600 -1,235 Descending FlightAware ADS-B
Sun 09:32:30 AM 43.9320 7.3060 158° South 321 369 14,000 -706 Descending FlightAware ADS-B
Sun 09:32:45 AM 43.9110 7.3170 159° South 320 368 14,000 -980 Level FlightAware ADS-B
Sun 09:33:19 AM 43.8610 7.3220 176° South 310 357 13,200 -1,478 Descending FlightAware ADS-B
Sun 09:33:54 AM 43.8120 7.3240 178° South 306 352 12,300 -1,667 Descending FlightAware ADS-B
Sun 09:34:31 AM 43.7600 7.3280 177° South 306 352 11,200 -1,164 Descending FlightAware ADS-B
Sun 09:35:01 AM 43.7170 7.3310 177° South 300 345 11,000 -174 Descending FlightAware ADS-B
Sun 09:35:40 AM 43.6620 7.3350 177° South 297 342 11,000 -676 Level FlightAware ADS-B
Sun 09:36:12 AM 43.6180 7.3380 177° South 298 343 10,200 -1,714 Descending FlightAware ADS-B
Sun 09:36:36 AM 43.5860 7.3410 176° South 293 337 9,400 -1,909 Descending FlightAware ADS-B
Sun 09:36:56 AM 43.5600 7.3430 177° South 291 335 8,800 -1,846 Descending FlightAware ADS-B
Sun 09:37:15 AM 43.5340 7.3450 177° South 288 331 8,200 -2,049 Descending FlightAware ADS-B
Sun 09:37:37 AM 43.5050 7.3470 177° South 290 334 7,400 -2,154 Descending FlightAware ADS-B
Sun 09:37:54 AM 43.4810 7.3470 180° South 291 335 6,800 -1,902 Descending FlightAware ADS-B
Sun 09:38:18 AM 43.4490 7.3470 180° South 283 326 6,100 -1,625 Descending FlightAware ADS-B
Sun 09:38:42 AM 43.4180 7.3470 180° South 279 321 5,500 -1,297 Descending FlightAware ADS-B
Sun 09:38:55 AM 43.4030 7.3430 191° South 279 321 5,300 -1,000 Descending FlightAware ADS-B
Sun 09:39:06 AM 43.3910 7.3340 209° Southwest 271 312 5,100 -818 Descending FlightAware ADS-B
Sun 09:39:17 AM 43.3830 7.3200 232° Southwest 259 298 5,000 -750 Descending FlightAware ADS-B
Sun 09:39:22 AM 43.3810 7.3130 249° West 254 292 4,900 -1,143 Descending FlightAware ADS-B
Sun 09:39:38 AM 43.3790 7.2890 263° West 241 277 4,600 -833 Descending FlightAware ADS-B
Sun 09:39:58 AM 43.3790 7.2610 270° West 229 264 4,400 -750 Descending FlightAware ADS-B
Sun 09:40:18 AM 43.3800 7.2310 273° West 214 246 4,100 -667 Descending FlightAware ADS-B
Sun 09:40:25 AM 43.3810 7.2250 283° West 210 242 4,100 -545 Level FlightAware ADS-B
Sun 09:40:29 AM 43.3840 7.2190 305° West 205 236 4,000 -857 Descending FlightAware ADS-B
Sun 09:40:39 AM 43.3900 7.2080 307° West 197 227 3,900 -960 Descending FlightAware ADS-B
Sun 09:40:54 AM 43.3960 7.1920 297° West 192 221 3,600 -1,029 Descending FlightAware ADS-B
Sun 09:41:14 AM 43.4020 7.1700 291° West 187 215 3,300 -960 Descending FlightAware ADS-B
Sun 09:41:19 AM 43.4060 7.1660 324° Northwest 188 216 3,200 -400 Descending FlightAware ADS-B
Sun 09:41:29 AM 43.4140 7.1630 345° North 193 222 3,200  Level FlightAware ADS-B
Sun 09:41:49 AM 43.4310 7.1620 358° North 192 221 3,200  Level FlightAware ADS-B
Sun 09:42:09 AM 43.4500 7.1620 360° North 192 221 3,200  Level FlightAware ADS-B
Sun 09:42:29 AM 43.4660 7.1610 357° North 182 209 3,200  Level FlightAware ADS-B
Sun 09:42:49 AM 43.4840 7.1610 360° North 176 203 3,200  Level FlightAware ADS-B
Sun 09:43:09 AM 43.5000 7.1600 357° North 172 198 3,200  Level FlightAware ADS-B
Sun 09:43:24 AM 43.5120 7.1600 360° North 174 200 3,200 -333 Level FlightAware ADS-B
Sun 09:43:45 AM 43.5280 7.1590 357° North 172 198 3,000 -652 Descending FlightAware ADS-B
Sun 09:44:10 AM 43.5470 7.1570 356° North 164 189 2,700 -750 Descending FlightAware ADS-B
Sun 09:44:25 AM 43.5580 7.1550 352° North 161 185 2,500 -857 Descending FlightAware ADS-B
Sun 09:44:45 AM 43.5730 7.1530 354° North 150 173 2,200 -800 Descending FlightAware ADS-B
Sun 09:44:55 AM 43.5800 7.1530 360° North 145 167 2,100 -1,029 Descending FlightAware ADS-B
Sun 09:45:20 AM 43.5980 7.1500 353° North 153 176 1,600 -1,091 Descending FlightAware ADS-B
Sun 09:45:50 AM 43.6120 7.1510 North 147 169 1,100 -900 Descending FlightAware ADS-B
Sun 09:46:00 AM 43.6220 7.1610 36° Northeast 142 163 1,000 -600 Descending FlightAware ADS-B
Sun 09:46:20 AM 43.6310 7.1750 48° Northeast 138 159 800 -698 Descending FlightAware ADS-B
Sun 09:46:43 AM 43.6420 7.1900 45° Northeast 137 158 500 -706 Descending FlightAware ADS-B
Sun 09:47:11 AM 43.6540 7.2070 46° Northeast 137 158 200 -643 Descending FlightAware ADS-B

Login

Don't have an account? Register now (free) for customized features, flight alerts, and more!